Terminal Aerodrome Forecast
Issued by NWS Shreveport, LA

Home | Current Version | Previous Version | Text Only | Print | Product List | Glossary On
Versions: 1 2 3 4 5 6 7 8 9 10 11 12 13 14
000
FTUS44 KSHV 022300
TAFGGG
TAF
KGGG 022330Z 0300/0324 07005KT 1/2SM FG OVC002
      TEMPO 0300/0303 2SM BR OVC004
     FM030600 10004KT 3SM BR OVC002
     FM031300 14005KT 5SM BR OVC008
     FM031800 18010KT P6SM BKN015=

USA.gov is the U.S. government's official web portal to all federal, state and local government web resources and services.